General Aviation Weather

Text Reports

Enter one or more of the following location identifiers separated by a space:

Zip Code, Four-Character ICAO or Three-Character IATA airport codes.

METAR - Aviation Routine Weather Report
KMRT - Marysville, Ohio
Updated at 1:14 PM GMT on April 25, 2015 (9:14 AM EDT):
METAR KMRT 251314Z AUTO 11010G15KT 10SM OVC055 07/M04 A2987 RMK AO2 T00681041
TAF - Terminal Area Forecast
KMRT - Marysville, Ohio
Updated at 1:14 PM GMT on April 25, 2015 (9:14 AM EDT):
No TAF is currently available for this location.
Decoded:
No decoded TAF is available.
PIREP - Pilot Weather Report
KMRT - Marysville, Ohio
Updated at 1:14 PM GMT on April 25, 2015 (9:14 AM EDT):
No PIREP is currently available for this location.
AIRMET - Airmens Meteorological Information
KMRT - Marysville, Ohio
Updated at 1:14 PM GMT on April 25, 2015 (9:14 AM EDT):
No AIRMET is currently available for this location.
SIGMET - Significant Meteorological Information
KMRT - Marysville, Ohio
Updated at 1:14 PM GMT on April 25, 2015 (9:14 AM EDT):
No SIGMET is currently available for this location.
NOTAM - Notice to Airmen
KMRT - Marysville, Ohio
Updated at 1:14 PM GMT on April 25, 2015 (9:14 AM EDT):
No NOTAM is currently available for this location.
Forecast Area
KMRT - Marysville, Ohio
Updated at 1:14 PM GMT on April 25, 2015 (9:14 AM EDT):
No NOTAM is currently available for this location.
Aviation Weather Maps